Time;durP1;ratioP1;P1;durP2;ratioP2;P2;SDS_P1;SDS_P2;PMS_P1;PMS_P2;Temp;Humidity;BMP_temperature;BMP_pressure;BME280_temperature;BME280_humidity;BME280_pressure;Samples;Min_cycle;Max_cycle;Signal;HPM_P1;HPM_P2
2023/04/13 07:23:08;;;;;;;5.35;3.50;;;;;;;-145.79;86.05;77224.66;5304790;27;20405;-69
2023/04/13 07:25:40;;;;;;;5.43;3.72;;;;;;;-145.79;86.17;77224.66;5299505;28;20029;-68
2023/04/13 07:28:11;;;;;;;7.53;3.20;;;;;;;-145.79;85.63;77222.53;5299709;28;20027;-70
2023/04/13 07:30:43;;;;;;;6.72;3.60;;;;;;;-145.79;85.75;77205.59;5298453;28;20135;-70
2023/04/13 07:33:15;;;;;;;7.65;3.88;;;;;;;-145.79;85.13;77207.72;5299686;28;20024;-69
2023/04/13 07:35:53;;;;;;;9.70;3.83;;;;;;;-145.79;85.11;77207.72;5299844;28;20051;-70
2023/04/13 07:38:25;;;;;;;15.18;10.27;;;;;;;-145.79;84.78;77207.72;5290877;28;20107;-70
2023/04/13 07:40:56;;;;;;;10.30;3.97;;;;;;;-145.79;84.33;77207.72;5279041;28;20570;-70
2023/04/13 07:43:27;;;;;;;9.90;4.82;;;;;;;-145.79;84.77;77207.72;5292118;28;20028;-70
2023/04/13 07:45:58;;;;;;;6.68;3.90;;;;;;;-145.79;84.60;77197.09;5297179;28;20222;-70
2023/04/13 07:48:30;;;;;;;8.43;3.72;;;;;;;-145.79;83.91;77195.00;5296995;28;20074;-70
2023/04/13 07:51:02;;;;;;;10.05;3.78;;;;;;;-145.79;84.58;77197.09;5300621;28;20024;-70
2023/04/13 07:53:33;;;;;;;8.90;4.10;;;;;;;-145.79;84.13;77203.47;5299444;28;20491;-70
2023/04/13 07:56:07;;;;;;;9.88;4.10;;;;;;;-145.79;83.65;77188.63;5296151;28;20032;-70
2023/04/13 07:58:39;;;;;;;10.30;3.90;;;;;;;-145.79;83.51;77182.28;5297596;28;20029;-70
2023/04/13 08:01:10;;;;;;;8.20;3.22;;;;;;;-145.79;82.64;77175.91;5299225;28;20028;-70
2023/04/13 08:03:42;;;;;;;10.18;4.10;;;;;;;-145.79;82.38;77178.03;5299349;28;20017;-70
2023/04/13 08:06:13;;;;;;;10.98;3.53;;;;;;;-145.79;82.40;77165.31;5299003;28;20028;-68
2023/04/13 08:08:44;;;;;;;8.25;4.30;;;;;;;-145.79;81.66;77167.44;5298760;28;20028;-71
2023/04/13 08:11:16;;;;;;;8.65;4.65;;;;;;;-145.79;80.52;77154.72;5298636;28;20024;-67
2023/04/13 08:13:47;;;;;;;8.77;3.40;;;;;;;-145.79;81.20;77150.47;5298315;28;20025;-69
2023/04/13 08:16:19;;;;;;;6.43;3.80;;;;;;;-145.79;80.08;77148.34;5298460;28;20375;-68
2023/04/13 08:18:50;;;;;;;11.32;4.75;;;;;;;-145.79;78.20;77148.34;5298873;28;20052;-67
2023/04/13 08:21:22;;;;;;;9.10;4.25;;;;;;;-145.79;77.67;77152.59;5289570;28;20045;-68
2023/04/13 08:23:53;;;;;;;10.00;3.92;;;;;;;-145.79;77.09;77150.47;5265642;28;20025;-68
2023/04/13 08:26:25;;;;;;;10.73;4.10;;;;;;;-145.79;77.04;77150.47;5257361;28;20017;-69
2023/04/13 08:28:56;;;;;;;11.60;5.53;;;;;;;-145.79;76.37;77146.25;5256724;28;20021;-69
2023/04/13 08:31:28;;;;;;;9.50;4.68;;;;;;;-145.79;76.67;77154.72;5256625;28;20070;-68
2023/04/13 08:33:59;;;;;;;12.50;5.95;;;;;;;-145.79;76.32;77148.34;5245473;28;20071;-68
2023/04/13 08:36:30;;;;;;;12.68;4.95;;;;;;;-145.79;76.81;77144.13;5259964;28;20501;-68
2023/04/13 08:39:02;;;;;;;11.75;4.80;;;;;;;-145.79;75.60;77146.25;5263199;28;20092;-70
2023/04/13 08:41:36;;;;;;;7.93;4.30;;;;;;;-145.79;75.02;77142.00;5262603;28;20523;-70
2023/04/13 08:44:08;;;;;;;18.85;5.18;;;;;;;-145.79;74.55;77144.13;5263211;28;20029;-71
2023/04/13 08:46:41;;;;;;;9.88;4.18;;;;;;;-145.79;74.32;77142.00;5263095;28;20079;-70
2023/04/13 08:49:12;;;;;;;12.27;5.22;;;;;;;-145.79;73.69;77152.59;5263240;28;20357;-71
2023/04/13 08:51:46;;;;;;;9.00;4.75;;;;;;;-145.79;73.02;77156.84;5263270;28;20036;-70
2023/04/13 08:54:17;;;;;;;12.75;6.78;;;;;;;-145.79;73.21;77165.31;5263276;28;20025;-69
2023/04/13 08:56:49;;;;;;;13.48;5.70;;;;;;;-145.79;73.42;77144.13;5262877;28;20025;-70
2023/04/13 08:59:22;;;;;;;14.02;7.40;;;;;;;-145.79;72.97;77144.13;5263793;28;20027;-70
2023/04/13 09:01:54;;;;;;;9.50;4.00;;;;;;;-145.79;72.01;77148.34;5262595;28;20037;-69
2023/04/13 09:04:30;;;;;;;9.18;3.65;;;;;;;-145.79;70.35;77142.00;5263351;28;20028;-69
2023/04/13 09:07:03;;;;;;;7.45;3.45;;;;;;;-145.79;69.96;77142.00;5263002;28;20394;-69
2023/04/13 09:09:37;;;;;;;8.10;3.83;;;;;;;-145.79;69.63;77139.88;5262140;28;20393;-76
2023/04/13 09:12:08;;;;;;;8.50;3.30;;;;;;;-145.79;70.27;77135.66;5262432;28;20031;-70
2023/04/13 09:14:40;;;;;;;12.90;4.70;;;;;;;-145.79;69.22;77122.94;5262984;28;20527;-70
2023/04/13 09:17:44;;;;;;;9.60;4.35;;;;;;;-145.79;68.78;77108.09;5262093;28;20437;-72
2023/04/13 09:20:21;;;;;;;8.77;3.67;;;;;;;-145.79;69.37;77116.56;5243636;28;20056;-70
2023/04/13 09:22:52;;;;;;;9.95;3.80;;;;;;;-145.79;68.34;77116.56;5259155;28;20090;-70
2023/04/13 09:25:28;;;;;;;11.63;3.17;;;;;;;-145.79;67.32;77120.81;5261818;28;20028;-73
2023/04/13 09:27:59;;;;;;;12.07;4.38;;;;;;;-145.79;67.71;77122.94;5260360;28;20025;-78
2023/04/13 09:30:31;;;;;;;11.00;3.50;;;;;;;-145.79;67.28;77120.81;5259880;28;20448;-78
2023/04/13 09:33:07;;;;;;;8.10;3.97;;;;;;;-145.79;67.65;77133.53;5260310;28;20064;-73
2023/04/13 09:35:38;;;;;;;8.88;2.90;;;;;;;-145.79;66.88;77144.13;5260950;28;20041;-73
2023/04/13 09:38:14;;;;;;;10.63;4.10;;;;;;;-145.79;66.77;77156.84;5259011;28;20542;-71
2023/04/13 09:40:49;;;;;;;6.75;2.92;;;;;;;-145.79;67.35;77165.31;5260635;28;20517;-70
2023/04/13 09:43:20;;;;;;;10.20;3.00;;;;;;;-145.79;67.57;77165.31;5261029;28;20116;-72
2023/04/13 09:45:51;;;;;;;8.75;5.07;;;;;;;-145.79;66.96;77161.06;5261024;28;20230;-75
2023/04/13 09:48:23;;;;;;;13.05;3.92;;;;;;;-145.79;66.88;77161.06;5262013;28;20021;-69
2023/04/13 09:51:03;;;;;;;9.35;3.67;;;;;;;-145.79;67.41;77156.84;5261899;28;20104;-71
2023/04/13 09:53:48;;;;;;;9.40;3.38;;;;;;;-145.79;66.59;77165.31;5261710;28;20029;-72
2023/04/13 09:56:21;;;;;;;12.98;4.40;;;;;;;-145.79;67.05;77165.31;5255883;28;20044;-72
2023/04/13 09:58:56;;;;;;;7.18;3.85;;;;;;;-145.79;66.55;77171.69;5250245;28;20488;-72
2023/04/13 10:01:27;;;;;;;6.70;3.67;;;;;;;-145.79;66.61;77195.00;5261825;28;20037;-72
2023/04/13 10:03:59;;;;;;;8.85;3.53;;;;;;;-145.79;67.20;77201.34;5259936;28;20055;-72
2023/04/13 10:06:30;;;;;;;12.05;5.07;;;;;;;-145.79;67.17;77203.47;5241271;28;20048;-73
2023/04/13 10:09:02;;;;;;;9.70;4.07;;;;;;;-145.79;67.64;77197.09;5241336;28;20523;-73
2023/04/13 10:11:38;;;;;;;11.43;4.78;;;;;;;-145.79;67.25;77190.75;5252963;28;20448;-76
2023/04/13 10:14:14;;;;;;;13.43;4.13;;;;;;;-145.79;67.72;77184.41;5260910;28;20040;-75
2023/04/13 10:17:06;;;;;;;14.18;5.57;;;;;;;-145.79;68.05;77184.41;5248309;28;20032;-74
2023/04/13 10:19:50;;;;;;;7.00;3.65;;;;;;;-145.79;66.77;77186.50;5261162;28;20311;-74
2023/04/13 10:22:22;;;;;;;13.43;4.65;;;;;;;-145.79;66.56;77190.75;5275331;28;20080;-74
2023/04/13 10:24:54;;;;;;;18.58;10.93;;;;;;;-145.79;66.47;77184.41;5282007;28;20024;-74
2023/04/13 10:27:27;;;;;;;11.73;5.00;;;;;;;-145.79;65.41;77188.63;5282191;28;20028;-74
2023/04/13 10:29:59;;;;;;;12.55;4.65;;;;;;;-145.79;66.11;77186.50;5282174;28;20028;-74
2023/04/13 10:32:30;;;;;;;41.90;32.28;;;;;;;-145.79;65.53;77178.03;5282726;28;20028;-73
2023/04/13 10:35:09;;;;;;;23.52;15.55;;;;;;;-145.79;65.88;77169.56;5281681;28;20429;-73
2023/04/13 10:37:43;;;;;;;10.88;5.20;;;;;;;-145.79;65.27;77171.69;5282400;28;20463;-73
2023/04/13 10:40:15;;;;;;;11.43;5.88;;;;;;;-145.79;64.30;77158.97;5282902;28;20040;-74
2023/04/13 10:42:46;;;;;;;10.90;4.32;;;;;;;-145.79;62.66;77154.72;5281428;28;20047;-74
2023/04/13 10:45:25;;;;;;;11.82;4.45;;;;;;;-145.79;63.45;77139.88;5264057;28;20079;-72
2023/04/13 10:47:57;;;;;;;11.93;4.38;;;;;;;-145.79;63.28;77125.03;5282285;28;20021;-73
2023/04/13 10:50:28;;;;;;;9.65;4.20;;;;;;;-145.79;63.49;77122.94;5282625;28;20032;-72
2023/04/13 10:53:05;;;;;;;12.10;5.80;;;;;;;-145.79;62.14;77137.75;5269319;28;20357;-73
2023/04/13 10:55:36;;;;;;;9.20;3.95;;;;;;;-145.79;62.94;77139.88;5281825;28;20032;-73
2023/04/13 10:58:18;;;;;;;7.82;4.60;;;;;;;-145.79;62.33;77139.88;5282375;28;20506;-74
2023/04/13 11:00:51;;;;;;;13.63;4.90;;;;;;;-145.79;62.58;77144.13;5282520;28;20027;-74
2023/04/13 11:03:27;;;;;;;10.70;5.43;;;;;;;-145.79;61.49;77152.59;5282350;28;20047;-73
2023/04/13 11:05:59;;;;;;;7.88;4.97;;;;;;;-145.79;62.12;77165.31;5282487;28;20104;-73
2023/04/13 11:08:31;;;;;;;10.52;4.50;;;;;;;-145.79;62.35;77167.44;5281901;28;20024;-74
2023/04/13 11:11:03;;;;;;;11.45;3.72;;;;;;;-145.79;63.13;77165.31;5282024;28;20570;-73
2023/04/13 11:13:43;;;;;;;11.02;3.25;;;;;;;-145.79;63.87;77165.31;5282222;28;20487;-72
2023/04/13 11:16:14;;;;;;;9.02;3.88;;;;;;;-145.79;63.30;77165.31;5282024;28;20071;-72
2023/04/13 11:18:46;;;;;;;6.45;2.92;;;;;;;-145.79;62.29;77169.56;5281960;28;20027;-73
2023/04/13 11:21:17;;;;;;;10.82;4.22;;;;;;;-145.79;62.37;77175.91;5281720;28;20028;-73
2023/04/13 11:23:52;;;;;;;11.13;4.85;;;;;;;-145.79;61.74;77178.03;5280626;28;20036;-72
2023/04/13 11:26:50;;;;;;;12.73;5.00;;;;;;;-145.79;62.32;77178.03;5281489;28;20423;-73
2023/04/13 11:29:21;;;;;;;17.67;9.30;;;;;;;-145.79;62.58;77165.31;5258133;28;20369;-73
2023/04/13 11:31:52;;;;;;;11.57;3.70;;;;;;;-145.79;61.34;77152.59;5281149;28;20025;-73
2023/04/13 11:34:25;;;;;;;10.60;3.55;;;;;;;-145.79;61.71;77131.41;5282229;28;20024;-74
2023/04/13 11:36:59;;;;;;;8.68;3.15;;;;;;;-145.79;61.20;77122.94;5280616;28;20025;-73
2023/04/13 11:39:34;;;;;;;9.73;4.28;;;;;;;-145.79;61.52;77125.03;5280034;28;20021;-73
2023/04/13 11:42:08;;;;;;;8.63;3.60;;;;;;;-145.79;61.42;77120.81;5263169;28;20036;-73
2023/04/13 11:44:44;;;;;;;9.07;4.57;;;;;;;-145.79;60.92;77110.22;5262689;28;20027;-74
2023/04/13 11:47:16;;;;;;;;;;;;;;;-145.79;62.09;77080.53;5282337;28;20093;-74
2023/04/13 11:49:49;;;;;;;8.32;4.07;;;;;;;-145.79;58.74;77078.41;5281636;28;19916;-74
2023/04/13 11:52:21;;;;;;;7.93;3.58;;;;;;;-145.79;59.44;77061.47;5281284;28;20016;-73
2023/04/13 11:54:53;;;;;;;8.25;3.65;;;;;;;-145.79;59.08;77021.19;5281834;28;20032;-73
2023/04/13 11:57:24;;;;;;;7.70;3.90;;;;;;;-145.79;56.32;77027.56;5281800;28;20181;-75
2023/04/13 11:59:56;;;;;;;6.28;3.53;;;;;;;-145.79;56.51;77023.31;5281422;28;20052;-74
2023/04/13 12:02:29;;;;;;;5.68;2.97;;;;;;;-145.79;55.09;77008.47;5282945;28;20032;-75
2023/04/13 12:05:01;;;;;;;8.48;3.53;;;;;;;-145.79;56.58;76995.75;5281265;28;20111;-74
2023/04/13 12:07:32;;;;;;;8.73;4.18;;;;;;;-145.79;55.01;76991.53;5282281;28;20334;-74
2023/04/13 12:10:05;;;;;;;4.65;2.40;;;;;;;-145.79;54.85;76995.75;5284918;28;20056;-74
2023/04/13 12:12:36;;;;;;;6.40;3.35;;;;;;;-145.79;54.92;77016.94;5285016;28;20058;-74
2023/04/13 12:15:11;;;;;;;6.38;2.47;;;;;;;-145.79;56.15;77004.25;5288906;28;20033;-76
2023/04/13 12:17:42;;;;;;;9.07;3.42;;;;;;;-145.79;56.04;76961.84;5292730;28;20016;-77
2023/04/13 12:20:19;;;;;;;9.85;3.30;;;;;;;-145.79;51.10;76949.13;5289686;28;20033;-77
2023/04/13 12:22:51;;;;;;;7.15;3.22;;;;;;;-145.79;51.25;76940.66;5285856;28;20048;-70
2023/04/13 12:25:23;;;;;;;6.68;2.65;;;;;;;-145.79;49.86;76932.19;5286055;28;20476;-74
2023/04/13 12:27:54;;;;;;;10.43;4.47;;;;;;;-145.79;50.32;76927.94;5285416;28;20108;-74
2023/04/13 12:30:31;;;;;;;6.97;3.72;;;;;;;-145.79;50.56;76944.91;5270619;28;20075;-74
2023/04/13 12:33:03;;;;;;;7.13;3.17;;;;;;;-145.79;50.88;76936.41;5283401;28;20145;-74
2023/04/13 12:35:34;;;;;;;7.78;2.92;;;;;;;-145.79;48.88;76927.94;5283447;28;20036;-74
2023/04/13 12:38:06;;;;;;;9.35;2.45;;;;;;;-145.79;51.00;76940.66;5284857;28;20021;-74
2023/04/13 12:40:38;;;;;;;5.30;2.42;;;;;;;-145.79;51.38;76976.69;5267039;28;20040;-74
2023/04/13 12:43:13;;;;;;;10.68;2.47;;;;;;;-145.79;51.93;76989.41;5274999;28;20066;-74
2023/04/13 12:45:44;;;;;;;8.32;2.65;;;;;;;-145.79;52.52;76968.22;5279525;28;20108;-75
2023/04/13 12:48:16;;;;;;;5.57;2.83;;;;;;;-145.79;51.65;76970.31;5281516;28;20443;-75
2023/04/13 12:50:47;;;;;;;7.07;3.17;;;;;;;-145.79;49.93;76974.56;5275949;28;20016;-75
2023/04/13 12:53:19;;;;;;;6.97;2.50;;;;;;;-145.79;48.71;76968.22;5285790;28;20048;-75
2023/04/13 12:55:50;;;;;;;8.40;2.78;;;;;;;-145.79;49.25;76957.59;5277205;28;20071;-73
2023/04/13 12:58:21;;;;;;;8.77;4.30;;;;;;;-145.79;48.35;76927.94;5264881;28;20074;-76
2023/04/13 13:00:54;;;;;;;6.22;2.15;;;;;;;-145.79;48.89;76932.19;5268421;28;20109;-76
2023/04/13 13:03:25;;;;;;;9.35;4.28;;;;;;;-145.79;46.98;76936.41;5285303;28;20096;-75
2023/04/13 13:05:57;;;;;;;5.65;2.92;;;;;;;-145.79;47.08;76940.66;5267036;28;20029;-76
2023/04/13 13:08:31;;;;;;;5.28;2.38;;;;;;;-145.79;47.33;76949.13;5264971;28;20104;-75
2023/04/13 13:11:02;;;;;;;7.22;3.53;;;;;;;-145.79;46.61;76953.38;5264896;28;20461;-75
2023/04/13 13:13:34;;;;;;;7.60;2.85;;;;;;;-145.79;46.44;76961.84;5265569;28;20134;-75
2023/04/13 13:16:06;;;;;;;9.10;2.95;;;;;;;-145.79;45.98;76949.13;5278204;28;20023;-72
2023/04/13 13:18:37;;;;;;;6.50;2.78;;;;;;;-145.79;47.57;76961.84;5284550;28;20060;-71
2023/04/13 13:21:09;;;;;;;7.68;4.03;;;;;;;-145.79;48.32;76991.53;5284254;28;20059;-71
2023/04/13 13:23:46;;;;;;;8.73;3.63;;;;;;;-145.79;48.52;77019.06;5283227;28;20056;-70
2023/04/13 13:26:17;;;;;;;7.82;3.92;;;;;;;-145.79;48.13;76987.28;5284714;28;20372;-70
2023/04/13 13:28:50;;;;;;;5.32;2.00;;;;;;;-145.79;47.73;76989.41;5285166;28;20020;-71
2023/04/13 13:31:21;;;;;;;5.72;2.50;;;;;;;-145.79;47.99;76991.53;5285781;28;20134;-68
2023/04/13 13:33:53;;;;;;;8.70;2.65;;;;;;;-145.79;48.41;76961.84;5286753;28;20029;-70
2023/04/13 13:36:25;;;;;;;5.72;2.67;;;;;;;-145.79;48.40;76910.97;5286445;28;20109;-70
2023/04/13 13:38:58;;;;;;;5.10;2.55;;;;;;;-145.79;47.10;76872.84;5293200;28;20017;-74
2023/04/13 13:41:30;;;;;;;4.47;2.55;;;;;;;-145.79;45.48;76838.94;5296935;28;20048;-74
2023/04/13 13:44:01;;;;;;;5.97;2.90;;;;;;;-145.79;44.80;76796.53;5293069;28;20033;-77
2023/04/13 13:46:32;;;;;;;8.25;5.15;;;;;;;-145.79;44.18;76760.50;5294589;28;20084;-75
2023/04/13 13:49:04;;;;;;;4.82;2.70;;;;;;;-145.79;42.09;76743.56;5297940;28;20483;-75
2023/04/13 13:51:35;;;;;;;6.43;2.88;;;;;;;-145.79;41.95;76724.47;5294563;28;20028;-76
2023/04/13 13:54:06;;;;;;;5.63;3.10;;;;;;;-145.79;41.62;76741.44;5296614;28;20027;-74
2023/04/13 13:56:37;;;;;;;5.82;2.60;;;;;;;-145.79;42.59;76760.50;5294494;28;20028;-75
2023/04/13 13:59:09;;;;;;;9.57;3.78;;;;;;;-145.79;42.11;76779.59;5291251;28;20111;-75
2023/04/13 14:01:40;;;;;;;5.68;3.03;;;;;;;-145.79;42.23;76783.81;5293370;28;20078;-76
2023/04/13 14:04:12;;;;;;;8.02;3.22;;;;;;;-145.79;41.75;76758.38;5295254;28;20459;-74
2023/04/13 14:06:44;;;;;;;5.20;2.58;;;;;;;-145.79;41.54;76773.22;5294033;28;20059;-77
2023/04/13 14:09:17;;;;;;;6.20;2.90;;;;;;;-145.79;40.66;76760.50;5295624;28;20104;-76
2023/04/13 14:11:49;;;;;;;6.43;2.67;;;;;;;-145.79;40.86;76771.09;5297531;28;20059;-77
2023/04/13 14:14:20;;;;;;;3.78;2.30;;;;;;;-145.79;41.50;76758.38;5297234;28;20042;-74
2023/04/13 14:16:52;;;;;;;6.57;2.88;;;;;;;-145.79;40.96;76735.06;5292999;28;20119;-71
2023/04/13 14:19:24;;;;;;;6.80;3.28;;;;;;;-145.79;40.09;76724.47;5287149;28;20028;-72
2023/04/13 14:21:55;;;;;;;3.97;2.28;;;;;;;-145.79;38.48;76732.97;5284850;28;20040;-72
2023/04/13 14:24:27;;;;;;;5.70;2.40;;;;;;;-145.79;38.13;76754.16;5284218;28;20051;-72
2023/04/13 14:26:58;;;;;;;6.30;2.63;;;;;;;-145.79;38.27;76713.88;5283192;28;20036;-72
2023/04/13 14:29:29;;;;;;;6.32;2.13;;;;;;;-145.79;37.66;76722.34;5283734;28;20035;-71
2023/04/13 14:32:00;;;;;;;4.75;2.70;;;;;;;-145.79;37.48;76711.75;5282881;28;20024;-72
2023/04/13 14:34:32;;;;;;;4.72;2.58;;;;;;;-145.79;36.48;76711.75;5283387;28;20020;-72
2023/04/13 14:37:03;;;;;;;4.95;2.80;;;;;;;-145.79;36.30;76745.69;5287197;28;20021;-71
2023/04/13 14:39:35;;;;;;;27.50;22.77;;;;;;;-145.79;37.24;76779.59;5286556;28;20055;-72
2023/04/13 14:42:08;;;;;;;6.70;3.63;;;;;;;-145.79;37.72;76811.38;5286609;28;20508;-70
2023/04/13 14:44:40;;;;;;;18.20;12.35;;;;;;;-145.79;38.53;76779.59;5281390;28;20116;-71
2023/04/13 14:47:11;;;;;;;7.15;2.80;;;;;;;-145.79;37.95;76779.59;5268659;28;20086;-71
2023/04/13 14:49:42;;;;;;;5.32;2.95;;;;;;;-145.79;37.91;76824.09;5286108;28;20108;-72
2023/04/13 14:52:14;;;;;;;5.28;2.42;;;;;;;-145.79;37.77;76792.31;5284661;28;20021;-73
2023/04/13 14:54:45;;;;;;;7.47;2.55;;;;;;;-145.79;37.27;76779.59;5284377;28;20043;-73
2023/04/13 14:57:17;;;;;;;11.23;7.55;;;;;;;-145.79;35.54;76790.19;5266780;28;20120;-76
2023/04/13 14:59:48;;;;;;;4.85;2.00;;;;;;;-145.79;36.12;76747.78;5283643;28;20025;-77
2023/04/13 15:02:19;;;;;;;3.65;2.10;;;;;;;-145.79;35.65;76739.31;5282969;28;20456;-76
2023/04/13 15:04:51;;;;;;;5.03;1.75;;;;;;;-145.79;35.63;76783.81;5285013;28;20055;-78
2023/04/13 15:07:28;;;;;;;4.43;2.65;;;;;;;-145.79;36.66;76781.69;5283716;28;20099;-78
2023/04/13 15:10:03;;;;;;;8.32;2.97;;;;;;;-145.79;36.69;76779.59;5282817;28;20032;-77
2023/04/13 15:12:34;;;;;;;3.83;2.08;;;;;;;-145.79;36.29;76743.56;5283259;28;20046;-77
2023/04/13 15:15:06;;;;;;;5.20;1.98;;;;;;;-145.79;36.47;76724.47;5280916;28;20025;-76
2023/04/13 15:17:37;;;;;;;3.38;2.30;;;;;;;-145.79;35.55;76737.19;5281974;28;20039;-77
2023/04/13 15:20:10;;;;;;;4.90;2.17;;;;;;;-145.79;35.34;76732.97;5282785;28;20028;-77
2023/04/13 15:22:42;;;;;;;7.50;2.72;;;;;;;-145.79;34.89;76758.38;5263641;28;20104;-76
2023/04/13 15:25:13;;;;;;;5.80;2.72;;;;;;;-145.79;35.54;76807.13;5261855;28;20108;-75
2023/04/13 15:27:55;;;;;;;4.55;2.03;;;;;;;-145.79;36.17;76790.19;5261890;28;20029;-76
2023/04/13 15:30:30;;;;;;;7.20;2.25;;;;;;;-145.79;36.34;76752.03;5261612;28;20030;-76
2023/04/13 15:33:02;;;;;;;2.53;1.80;;;;;;;-145.79;35.65;76728.72;5262105;28;20036;-78
2023/04/13 15:35:34;;;;;;;4.53;1.80;;;;;;;-145.79;35.31;76737.19;5262541;28;20029;-77
2023/04/13 15:38:06;;;;;;;7.22;2.35;;;;;;;-145.79;34.52;76739.31;5262611;28;20040;-77
2023/04/13 15:40:38;;;;;;;3.63;1.90;;;;;;;-145.79;34.73;76777.47;5262131;28;20101;-78
2023/04/13 15:43:09;;;;;;;5.68;2.20;;;;;;;-145.79;35.06;76781.69;5262040;28;20455;-77
2023/04/13 15:45:40;;;;;;;5.65;1.65;;;;;;;-145.79;35.12;76754.16;5248408;28;20036;-78
2023/04/13 15:48:12;;;;;;;8.75;2.05;;;;;;;-145.79;35.12;76754.16;5267599;28;20060;-79
2023/04/13 15:50:43;;;;;;;5.35;1.88;;;;;;;-145.79;34.73;76762.63;5266954;28;20096;-78
2023/04/13 15:53:14;;;;;;;4.15;2.55;;;;;;;-145.79;34.81;76766.88;5265638;28;20041;-78
2023/04/13 15:55:46;;;;;;;6.00;2.50;;;;;;;-145.79;35.06;76745.69;5266236;28;20021;-78
2023/04/13 15:58:17;;;;;;;4.95;1.95;;;;;;;-145.79;35.49;76749.91;5265909;28;20056;-77
2023/04/13 16:01:02;;;;;;;6.60;2.33;;;;;;;-145.79;35.73;76720.25;5268567;28;20155;-81
2023/04/13 16:03:34;;;;;;;3.53;1.80;;;;;;;-145.79;35.38;76732.97;5268547;28;20087;-74
2023/04/13 16:06:05;;;;;;;3.40;1.70;;;;;;;-145.79;35.29;76754.16;5264580;28;20028;-69
2023/04/13 16:08:37;;;;;;;6.35;1.90;;;;;;;-145.79;35.17;76749.91;5246736;28;20410;-69
2023/04/13 16:11:08;;;;;;;5.10;1.83;;;;;;;-145.79;35.42;76732.97;5264648;28;20029;-68
2023/04/13 16:13:40;;;;;;;6.22;2.00;;;;;;;-145.79;35.80;76747.78;5264476;28;20021;-70
2023/04/13 16:16:13;;;;;;;4.60;1.73;;;;;;;-145.79;35.54;76775.34;5265044;28;20031;-68
2023/04/13 16:18:44;;;;;;;3.95;1.88;;;;;;;-145.79;36.45;76788.06;5246717;28;20051;-67
2023/04/13 16:21:18;;;;;;;6.82;2.50;;;;;;;-145.79;35.09;76821.97;5270400;28;20037;-70
2023/04/13 16:23:49;;;;;;;5.45;1.75;;;;;;;-145.79;34.89;76843.16;5285720;28;20039;-68
2023/04/13 16:26:21;;;;;;;7.80;2.15;;;;;;;-145.79;35.52;76809.25;5285237;28;20095;-69
2023/04/13 16:28:55;;;;;;;5.03;2.47;;;;;;;-145.79;35.24;76781.69;5285690;28;20031;-69
2023/04/13 16:31:26;;;;;;;5.10;1.73;;;;;;;-145.79;35.40;76752.03;5285874;28;20025;-68
2023/04/13 16:33:58;;;;;;;6.97;1.90;;;;;;;-145.79;35.17;76754.16;5284682;28;20035;-69
2023/04/13 16:36:30;;;;;;;6.13;3.15;;;;;;;-145.79;35.57;76747.78;5285243;28;20032;-68
2023/04/13 16:39:09;;;;;;;4.53;2.22;;;;;;;-145.79;34.61;76747.78;5285237;28;20430;-68
2023/04/13 16:41:41;;;;;;;4.45;1.73;;;;;;;-145.79;34.89;76762.63;5285716;28;20032;-70
2023/04/13 16:44:12;;;;;;;3.70;1.80;;;;;;;-145.79;34.30;76798.66;5285757;28;20029;-68
2023/04/13 16:46:44;;;;;;;5.60;1.98;;;;;;;-145.79;34.53;76826.22;5284703;28;20043;-69
2023/04/13 16:49:15;;;;;;;6.63;1.70;;;;;;;-145.79;33.68;76832.56;5285005;28;20108;-69
2023/04/13 16:51:47;;;;;;;14.52;9.95;;;;;;;-145.79;33.63;76817.72;5285148;28;20028;-68
2023/04/13 16:54:19;;;;;;;5.60;1.50;;;;;;;-145.79;33.82;76817.72;5283019;28;20028;-68
